createdAt,value
2023-03-02T00:09:44.175Z,1.19
2023-03-02T00:19:44.920Z,1.19
2023-03-02T00:29:45.152Z,1.18
2023-03-02T00:39:44.796Z,1.09
2023-03-02T00:49:47.397Z,0.99
2023-03-02T01:00:01.704Z,0.86
2023-03-02T01:10:02.017Z,0.73
2023-03-02T01:20:01.956Z,0.61
2023-03-02T01:30:01.874Z,0.51
2023-03-02T01:40:06.383Z,0.39
2023-03-02T01:50:08.840Z,0.29
2023-03-02T02:00:13.386Z,0.21
2023-03-02T02:10:14.635Z,0.15
2023-03-02T02:20:16.047Z,0.07
2023-03-02T02:30:16.162Z,-0.03
2023-03-02T02:40:16.409Z,-0.11
2023-03-02T02:50:17.112Z,-0.18
2023-03-02T03:00:17.162Z,-0.22
2023-03-02T03:10:17.722Z,-0.08
2023-03-02T03:20:18.498Z,0.25
2023-03-02T03:30:19.369Z,0.56
2023-03-02T03:40:20.370Z,0.79
2023-03-02T03:50:21.160Z,0.93
2023-03-02T04:00:25.935Z,0.96
2023-03-02T04:10:27.193Z,0.95
2023-03-02T04:20:28.656Z,0.95
2023-03-02T04:30:29.252Z,0.96
2023-03-02T04:40:29.108Z,0.98
2023-03-02T04:50:29.233Z,1.05
2023-03-02T05:00:29.217Z,1.13
2023-03-02T05:10:29.118Z,1.20
2023-03-02T05:20:29.946Z,1.25
2023-03-02T05:30:35.005Z,1.24
2023-03-02T05:40:35.216Z,1.15
2023-03-02T05:50:35.368Z,1.06
2023-03-02T06:00:35.249Z,0.99
2023-03-02T06:10:35.138Z,0.86
2023-03-02T06:20:35.201Z,0.76
2023-03-02T06:30:35.282Z,0.82
2023-03-02T06:40:35.164Z,0.97
2023-03-02T06:50:35.348Z,1.13
2023-03-02T07:00:35.234Z,1.38
2023-03-02T07:10:35.348Z,1.67
2023-03-02T07:20:35.309Z,1.99
2023-03-02T07:30:35.407Z,2.29
2023-03-02T07:40:37.217Z,2.57
2023-03-02T07:50:46.499Z,2.85
2023-03-02T08:00:46.260Z,3.10
2023-03-02T08:10:46.284Z,3.33
2023-03-02T08:20:46.345Z,3.56
2023-03-02T08:30:46.277Z,3.90
2023-03-02T08:40:46.405Z,4.46
2023-03-02T08:50:49.403Z,5.69
2023-03-02T09:00:49.504Z,7.72
2023-03-02T09:10:49.381Z,10.04
2023-03-02T09:20:49.499Z,12.33
2023-03-02T09:30:49.444Z,14.13
2023-03-02T09:40:49.402Z,15.40
2023-03-02T09:50:49.627Z,16.06
2023-03-02T10:00:49.443Z,16.31
2023-03-02T10:10:49.534Z,15.94
2023-03-02T10:20:49.894Z,15.12
2023-03-02T10:30:50.543Z,14.35
2023-03-02T10:40:52.391Z,13.65
2023-03-02T10:50:52.531Z,13.11
2023-03-02T11:00:52.512Z,12.63
2023-03-02T11:10:52.469Z,12.16
2023-03-02T11:20:52.586Z,11.76
2023-03-02T11:30:52.648Z,11.42
2023-03-02T11:40:52.631Z,11.13
2023-03-02T11:50:52.635Z,10.92
2023-03-02T12:00:52.973Z,10.79
2023-03-02T12:10:53.599Z,10.70
2023-03-02T12:20:53.696Z,10.64
2023-03-02T12:30:53.688Z,10.63
2023-03-02T12:40:53.660Z,10.67
2023-03-02T12:50:53.786Z,10.74
2023-03-02T13:00:53.786Z,10.81
2023-03-02T13:10:53.786Z,10.90
2023-03-02T13:20:53.649Z,11.02
2023-03-02T13:30:53.918Z,11.15
2023-03-02T13:40:53.821Z,11.29
2023-03-02T13:50:53.700Z,11.41
2023-03-02T14:00:53.769Z,11.53
2023-03-02T14:10:54.431Z,11.65
2023-03-02T14:20:54.783Z,11.68
2023-03-02T14:30:54.947Z,11.69
2023-03-02T14:40:54.862Z,11.69
2023-03-02T14:50:54.921Z,11.68
2023-03-02T15:00:54.809Z,11.65
2023-03-02T15:10:54.842Z,11.63
2023-03-02T15:20:54.825Z,11.59
2023-03-02T15:30:55.642Z,11.53
2023-03-02T15:40:55.911Z,11.47
2023-03-02T15:50:55.860Z,11.38
2023-03-02T16:00:56.503Z,11.25
2023-03-02T16:10:57.141Z,11.09
2023-03-02T16:20:56.903Z,10.95
2023-03-02T16:30:56.905Z,10.80
2023-03-02T16:40:57.313Z,10.60
2023-03-02T16:50:57.967Z,10.36
2023-03-02T17:00:58.172Z,10.10
2023-03-02T17:10:57.996Z,9.81
2023-03-02T17:20:58.014Z,9.52
2023-03-02T17:30:58.116Z,9.23
2023-03-02T17:40:58.141Z,8.93
2023-03-02T17:50:58.500Z,8.67
2023-03-02T18:00:59.121Z,8.46
2023-03-02T18:10:59.176Z,8.27
2023-03-02T18:20:59.159Z,8.04
2023-03-02T18:30:59.688Z,7.79
2023-03-02T18:41:00.256Z,7.57
2023-03-02T18:51:00.069Z,7.34
2023-03-02T19:01:00.214Z,7.12
2023-03-02T19:11:01.206Z,6.95
2023-03-02T19:21:04.736Z,6.77
2023-03-02T19:31:06.141Z,6.56
2023-03-02T19:41:06.247Z,6.36
2023-03-02T19:51:06.137Z,6.15
2023-03-02T20:01:06.275Z,5.95
2023-03-02T20:11:06.242Z,5.74
2023-03-02T20:21:06.247Z,5.46
2023-03-02T20:31:08.185Z,5.17
2023-03-02T20:41:09.043Z,4.95
2023-03-02T20:51:22.126Z,4.77
2023-03-02T21:01:23.239Z,4.64
2023-03-02T21:11:23.272Z,4.56
2023-03-02T21:21:32.616Z,4.44
2023-03-02T21:31:25.520Z,4.31
2023-03-02T21:41:25.297Z,4.17
2023-03-02T21:51:25.435Z,3.99
2023-03-02T22:01:25.872Z,3.78
2023-03-02T22:11:26.393Z,3.56
2023-03-02T22:21:26.406Z,3.38
2023-03-02T22:31:26.564Z,3.23
2023-03-02T22:41:26.415Z,3.06
2023-03-02T22:51:26.432Z,2.84
2023-03-02T23:01:26.392Z,2.61
2023-03-02T23:11:26.451Z,2.42
2023-03-02T23:21:28.268Z,2.29
2023-03-02T23:31:28.534Z,2.17
2023-03-02T23:41:28.530Z,2.00
2023-03-02T23:51:48.140Z,1.85
